sensor_id;sensor_type;location;lat;lon;timestamp;P1;durP1;ratioP1;P2;durP2;ratioP2
6763;SDS011;47432;48.760;9.178;2023-03-16T00:01:04;26.53;;;13.90;;
6763;SDS011;47432;48.760;9.178;2023-03-16T00:03:32;25.60;;;12.70;;
6763;SDS011;47432;48.760;9.178;2023-03-16T00:05:58;24.90;;;13.43;;
6763;SDS011;47432;48.760;9.178;2023-03-16T00:08:24;26.17;;;14.30;;
6763;SDS011;47432;48.760;9.178;2023-03-16T00:10:51;23.10;;;12.90;;
6763;SDS011;47432;48.760;9.178;2023-03-16T00:13:18;25.40;;;14.00;;
6763;SDS011;47432;48.760;9.178;2023-03-16T00:15:49;26.07;;;13.17;;
6763;SDS011;47432;48.760;9.178;2023-03-16T00:18:23;25.00;;;12.20;;
6763;SDS011;47432;48.760;9.178;2023-03-16T00:20:52;28.77;;;15.13;;
6763;SDS011;47432;48.760;9.178;2023-03-16T00:23:22;22.70;;;12.30;;
6763;SDS011;47432;48.760;9.178;2023-03-16T00:26:00;28.10;;;13.57;;
6763;SDS011;47432;48.760;9.178;2023-03-16T00:28:29;28.70;;;13.23;;
6763;SDS011;47432;48.760;9.178;2023-03-16T00:31:06;29.40;;;13.90;;
6763;SDS011;47432;48.760;9.178;2023-03-16T00:33:36;21.87;;;12.17;;
6763;SDS011;47432;48.760;9.178;2023-03-16T00:36:03;22.43;;;12.53;;
6763;SDS011;47432;48.760;9.178;2023-03-16T00:38:34;25.93;;;14.03;;
6763;SDS011;47432;48.760;9.178;2023-03-16T00:41:02;22.70;;;11.43;;
6763;SDS011;47432;48.760;9.178;2023-03-16T00:43:31;21.10;;;11.57;;
6763;SDS011;47432;48.760;9.178;2023-03-16T00:46:04;21.30;;;10.83;;
6763;SDS011;47432;48.760;9.178;2023-03-16T00:48:33;22.10;;;11.30;;
6763;SDS011;47432;48.760;9.178;2023-03-16T00:51:04;21.40;;;11.30;;
6763;SDS011;47432;48.760;9.178;2023-03-16T00:53:32;19.37;;;9.67;;
6763;SDS011;47432;48.760;9.178;2023-03-16T00:56:00;21.40;;;10.83;;
6763;SDS011;47432;48.760;9.178;2023-03-16T00:58:30;20.50;;;10.63;;
6763;SDS011;47432;48.760;9.178;2023-03-16T01:01:00;18.30;;;9.07;;
6763;SDS011;47432;48.760;9.178;2023-03-16T01:03:27;21.67;;;9.53;;
6763;SDS011;47432;48.760;9.178;2023-03-16T01:05:54;20.27;;;10.33;;
6763;SDS011;47432;48.760;9.178;2023-03-16T01:08:24;19.37;;;9.83;;
6763;SDS011;47432;48.760;9.178;2023-03-16T01:10:52;19.30;;;10.63;;
6763;SDS011;47432;48.760;9.178;2023-03-16T01:13:19;20.23;;;10.00;;
6763;SDS011;47432;48.760;9.178;2023-03-16T01:15:51;21.80;;;9.53;;
6763;SDS011;47432;48.760;9.178;2023-03-16T01:18:17;21.57;;;10.70;;
6763;SDS011;47432;48.760;9.178;2023-03-16T01:20:44;20.67;;;9.50;;
6763;SDS011;47432;48.760;9.178;2023-03-16T01:23:15;21.13;;;10.37;;
6763;SDS011;47432;48.760;9.178;2023-03-16T01:25:44;18.90;;;8.67;;
6763;SDS011;47432;48.760;9.178;2023-03-16T01:28:18;19.93;;;9.73;;
6763;SDS011;47432;48.760;9.178;2023-03-16T01:30:45;19.53;;;9.43;;
6763;SDS011;47432;48.760;9.178;2023-03-16T01:33:11;17.07;;;7.97;;
6763;SDS011;47432;48.760;9.178;2023-03-16T01:35:38;22.10;;;9.97;;
6763;SDS011;47432;48.760;9.178;2023-03-16T01:38:04;17.67;;;8.67;;
6763;SDS011;47432;48.760;9.178;2023-03-16T01:40:30;18.93;;;7.93;;
6763;SDS011;47432;48.760;9.178;2023-03-16T01:43:01;20.20;;;9.27;;
6763;SDS011;47432;48.760;9.178;2023-03-16T01:48:28;21.07;;;9.57;;
6763;SDS011;47432;48.760;9.178;2023-03-16T01:51:15;20.20;;;10.17;;
6763;SDS011;47432;48.760;9.178;2023-03-16T01:53:48;22.40;;;11.10;;
6763;SDS011;47432;48.760;9.178;2023-03-16T01:56:21;20.90;;;10.10;;
6763;SDS011;47432;48.760;9.178;2023-03-16T01:58:53;21.93;;;11.20;;
6763;SDS011;47432;48.760;9.178;2023-03-16T02:01:23;24.97;;;13.70;;
6763;SDS011;47432;48.760;9.178;2023-03-16T02:03:52;23.10;;;12.17;;
6763;SDS011;47432;48.760;9.178;2023-03-16T02:06:26;28.60;;;14.77;;
6763;SDS011;47432;48.760;9.178;2023-03-16T02:08:52;28.77;;;14.40;;
6763;SDS011;47432;48.760;9.178;2023-03-16T02:11:21;28.80;;;16.00;;
6763;SDS011;47432;48.760;9.178;2023-03-16T02:13:47;31.27;;;16.00;;
6763;SDS011;47432;48.760;9.178;2023-03-16T02:16:14;32.80;;;16.57;;
6763;SDS011;47432;48.760;9.178;2023-03-16T02:18:44;29.50;;;14.53;;
6763;SDS011;47432;48.760;9.178;2023-03-16T02:21:17;27.77;;;14.50;;
6763;SDS011;47432;48.760;9.178;2023-03-16T02:23:53;31.60;;;16.20;;
6763;SDS011;47432;48.760;9.178;2023-03-16T02:29:09;28.77;;;15.07;;
6763;SDS011;47432;48.760;9.178;2023-03-16T02:31:41;29.50;;;15.57;;
6763;SDS011;47432;48.760;9.178;2023-03-16T02:34:09;29.60;;;15.30;;
6763;SDS011;47432;48.760;9.178;2023-03-16T02:36:37;32.87;;;15.73;;
6763;SDS011;47432;48.760;9.178;2023-03-16T02:39:08;29.23;;;14.47;;
6763;SDS011;47432;48.760;9.178;2023-03-16T02:41:35;30.13;;;17.00;;
6763;SDS011;47432;48.760;9.178;2023-03-16T02:44:03;29.63;;;16.00;;
6763;SDS011;47432;48.760;9.178;2023-03-16T02:46:52;27.37;;;15.03;;
6763;SDS011;47432;48.760;9.178;2023-03-16T02:49:29;31.40;;;14.93;;
6763;SDS011;47432;48.760;9.178;2023-03-16T02:52:01;32.47;;;16.30;;
6763;SDS011;47432;48.760;9.178;2023-03-16T02:54:28;31.57;;;15.73;;
6763;SDS011;47432;48.760;9.178;2023-03-16T02:56:56;24.70;;;13.87;;
6763;SDS011;47432;48.760;9.178;2023-03-16T02:59:22;29.03;;;15.17;;
6763;SDS011;47432;48.760;9.178;2023-03-16T03:01:47;26.10;;;13.47;;
6763;SDS011;47432;48.760;9.178;2023-03-16T03:04:14;23.40;;;12.33;;
6763;SDS011;47432;48.760;9.178;2023-03-16T03:06:39;29.03;;;14.53;;
6763;SDS011;47432;48.760;9.178;2023-03-16T03:09:06;26.57;;;12.70;;
6763;SDS011;47432;48.760;9.178;2023-03-16T03:11:35;27.60;;;13.93;;
6763;SDS011;47432;48.760;9.178;2023-03-16T03:14:04;25.57;;;12.80;;
6763;SDS011;47432;48.760;9.178;2023-03-16T03:16:30;25.37;;;12.93;;
6763;SDS011;47432;48.760;9.178;2023-03-16T03:18:56;26.30;;;12.30;;
6763;SDS011;47432;48.760;9.178;2023-03-16T03:21:22;27.37;;;13.40;;
6763;SDS011;47432;48.760;9.178;2023-03-16T03:23:49;25.73;;;12.17;;
6763;SDS011;47432;48.760;9.178;2023-03-16T03:26:17;31.73;;;15.70;;
6763;SDS011;47432;48.760;9.178;2023-03-16T03:28:44;33.67;;;18.00;;
6763;SDS011;47432;48.760;9.178;2023-03-16T03:31:14;28.80;;;16.53;;
6763;SDS011;47432;48.760;9.178;2023-03-16T03:33:45;32.27;;;16.70;;
6763;SDS011;47432;48.760;9.178;2023-03-16T03:36:11;27.93;;;16.60;;
6763;SDS011;47432;48.760;9.178;2023-03-16T03:38:37;32.77;;;16.87;;
6763;SDS011;47432;48.760;9.178;2023-03-16T03:41:03;31.47;;;16.13;;
6763;SDS011;47432;48.760;9.178;2023-03-16T03:43:31;33.37;;;15.40;;
6763;SDS011;47432;48.760;9.178;2023-03-16T03:46:01;31.03;;;17.33;;
6763;SDS011;47432;48.760;9.178;2023-03-16T03:48:27;34.50;;;17.23;;
6763;SDS011;47432;48.760;9.178;2023-03-16T03:50:53;32.90;;;17.20;;
6763;SDS011;47432;48.760;9.178;2023-03-16T03:53:19;30.00;;;16.50;;
6763;SDS011;47432;48.760;9.178;2023-03-16T03:55:47;31.57;;;17.07;;
6763;SDS011;47432;48.760;9.178;2023-03-16T03:58:13;34.43;;;17.17;;
6763;SDS011;47432;48.760;9.178;2023-03-16T04:00:39;31.80;;;14.90;;
6763;SDS011;47432;48.760;9.178;2023-03-16T04:03:06;29.47;;;16.00;;
6763;SDS011;47432;48.760;9.178;2023-03-16T04:05:32;30.57;;;16.63;;
6763;SDS011;47432;48.760;9.178;2023-03-16T04:07:58;31.60;;;16.80;;
6763;SDS011;47432;48.760;9.178;2023-03-16T04:10:25;34.20;;;17.30;;
6763;SDS011;47432;48.760;9.178;2023-03-16T04:12:55;28.47;;;16.17;;
6763;SDS011;47432;48.760;9.178;2023-03-16T04:15:23;31.70;;;16.63;;
6763;SDS011;47432;48.760;9.178;2023-03-16T04:17:49;28.80;;;14.97;;
6763;SDS011;47432;48.760;9.178;2023-03-16T04:20:16;32.83;;;16.37;;
6763;SDS011;47432;48.760;9.178;2023-03-16T04:22:46;33.47;;;17.30;;
6763;SDS011;47432;48.760;9.178;2023-03-16T04:25:13;30.93;;;16.43;;
6763;SDS011;47432;48.760;9.178;2023-03-16T04:27:43;29.73;;;17.80;;
6763;SDS011;47432;48.760;9.178;2023-03-16T04:30:12;31.90;;;16.80;;
6763;SDS011;47432;48.760;9.178;2023-03-16T04:32:39;33.07;;;18.17;;
6763;SDS011;47432;48.760;9.178;2023-03-16T04:35:05;30.47;;;16.37;;
6763;SDS011;47432;48.760;9.178;2023-03-16T04:37:32;30.90;;;15.73;;
6763;SDS011;47432;48.760;9.178;2023-03-16T04:39:58;27.60;;;16.10;;
6763;SDS011;47432;48.760;9.178;2023-03-16T04:42:33;32.17;;;16.97;;
6763;SDS011;47432;48.760;9.178;2023-03-16T04:44:59;31.20;;;17.07;;
6763;SDS011;47432;48.760;9.178;2023-03-16T04:47:26;29.03;;;15.60;;
6763;SDS011;47432;48.760;9.178;2023-03-16T04:49:52;30.80;;;17.87;;
6763;SDS011;47432;48.760;9.178;2023-03-16T04:52:18;29.63;;;16.40;;
6763;SDS011;47432;48.760;9.178;2023-03-16T04:54:44;27.57;;;15.40;;
6763;SDS011;47432;48.760;9.178;2023-03-16T04:57:10;31.63;;;16.63;;
6763;SDS011;47432;48.760;9.178;2023-03-16T04:59:43;31.70;;;16.00;;
6763;SDS011;47432;48.760;9.178;2023-03-16T05:02:11;28.47;;;14.43;;
6763;SDS011;47432;48.760;9.178;2023-03-16T05:04:38;29.90;;;16.43;;
6763;SDS011;47432;48.760;9.178;2023-03-16T05:07:04;28.77;;;16.10;;
6763;SDS011;47432;48.760;9.178;2023-03-16T05:09:30;25.00;;;13.77;;
6763;SDS011;47432;48.760;9.178;2023-03-16T05:11:57;31.30;;;15.33;;
6763;SDS011;47432;48.760;9.178;2023-03-16T05:14:23;28.23;;;15.03;;
6763;SDS011;47432;48.760;9.178;2023-03-16T05:16:50;29.27;;;15.47;;
6763;SDS011;47432;48.760;9.178;2023-03-16T05:19:16;26.73;;;14.43;;
6763;SDS011;47432;48.760;9.178;2023-03-16T05:21:42;28.60;;;14.87;;
6763;SDS011;47432;48.760;9.178;2023-03-16T05:24:09;27.27;;;14.00;;
6763;SDS011;47432;48.760;9.178;2023-03-16T05:26:36;27.30;;;15.10;;
6763;SDS011;47432;48.760;9.178;2023-03-16T05:29:02;29.20;;;16.23;;
6763;SDS011;47432;48.760;9.178;2023-03-16T05:31:29;31.03;;;15.73;;
6763;SDS011;47432;48.760;9.178;2023-03-16T05:33:57;27.30;;;12.93;;
6763;SDS011;47432;48.760;9.178;2023-03-16T05:36:23;27.43;;;13.87;;
6763;SDS011;47432;48.760;9.178;2023-03-16T05:38:49;28.97;;;14.77;;
6763;SDS011;47432;48.760;9.178;2023-03-16T05:41:16;26.03;;;14.40;;
6763;SDS011;47432;48.760;9.178;2023-03-16T05:43:44;29.27;;;14.90;;
6763;SDS011;47432;48.760;9.178;2023-03-16T05:46:10;28.73;;;15.10;;
6763;SDS011;47432;48.760;9.178;2023-03-16T05:48:37;33.07;;;15.03;;
6763;SDS011;47432;48.760;9.178;2023-03-16T05:51:03;29.93;;;13.40;;
6763;SDS011;47432;48.760;9.178;2023-03-16T05:53:32;29.47;;;14.77;;
6763;SDS011;47432;48.760;9.178;2023-03-16T05:55:59;30.70;;;14.90;;
6763;SDS011;47432;48.760;9.178;2023-03-16T05:58:26;30.40;;;16.07;;
6763;SDS011;47432;48.760;9.178;2023-03-16T06:00:59;30.40;;;15.37;;
6763;SDS011;47432;48.760;9.178;2023-03-16T06:03:26;30.30;;;15.40;;
6763;SDS011;47432;48.760;9.178;2023-03-16T06:05:52;29.90;;;15.83;;
6763;SDS011;47432;48.760;9.178;2023-03-16T06:08:18;28.57;;;14.67;;
6763;SDS011;47432;48.760;9.178;2023-03-16T06:10:49;30.63;;;15.27;;
6763;SDS011;47432;48.760;9.178;2023-03-16T06:13:15;30.23;;;14.80;;
6763;SDS011;47432;48.760;9.178;2023-03-16T06:15:41;30.17;;;15.50;;
6763;SDS011;47432;48.760;9.178;2023-03-16T06:18:08;30.90;;;16.40;;
6763;SDS011;47432;48.760;9.178;2023-03-16T06:20:34;28.37;;;14.77;;
6763;SDS011;47432;48.760;9.178;2023-03-16T06:23:00;31.83;;;15.03;;
6763;SDS011;47432;48.760;9.178;2023-03-16T06:25:26;31.63;;;15.47;;
6763;SDS011;47432;48.760;9.178;2023-03-16T06:27:52;31.10;;;15.20;;
6763;SDS011;47432;48.760;9.178;2023-03-16T06:30:18;31.73;;;16.70;;
6763;SDS011;47432;48.760;9.178;2023-03-16T06:32:45;29.27;;;15.43;;
6763;SDS011;47432;48.760;9.178;2023-03-16T06:35:13;28.97;;;15.00;;
6763;SDS011;47432;48.760;9.178;2023-03-16T06:37:39;32.53;;;15.37;;
6763;SDS011;47432;48.760;9.178;2023-03-16T06:40:06;31.63;;;16.37;;
6763;SDS011;47432;48.760;9.178;2023-03-16T06:42:32;30.57;;;15.00;;
6763;SDS011;47432;48.760;9.178;2023-03-16T06:45:00;28.50;;;14.03;;
6763;SDS011;47432;48.760;9.178;2023-03-16T06:47:26;28.67;;;15.70;;
6763;SDS011;47432;48.760;9.178;2023-03-16T06:49:52;30.00;;;14.80;;
6763;SDS011;47432;48.760;9.178;2023-03-16T06:52:19;29.47;;;15.03;;
6763;SDS011;47432;48.760;9.178;2023-03-16T06:54:46;34.57;;;17.17;;
6763;SDS011;47432;48.760;9.178;2023-03-16T06:57:11;30.10;;;16.13;;
6763;SDS011;47432;48.760;9.178;2023-03-16T06:59:38;30.67;;;16.03;;
6763;SDS011;47432;48.760;9.178;2023-03-16T07:02:04;30.27;;;16.60;;
6763;SDS011;47432;48.760;9.178;2023-03-16T07:04:30;31.40;;;17.30;;
6763;SDS011;47432;48.760;9.178;2023-03-16T07:06:58;30.23;;;16.50;;
6763;SDS011;47432;48.760;9.178;2023-03-16T07:09:23;33.20;;;16.30;;
6763;SDS011;47432;48.760;9.178;2023-03-16T07:11:50;32.40;;;16.60;;
6763;SDS011;47432;48.760;9.178;2023-03-16T07:14:17;31.73;;;15.50;;
6763;SDS011;47432;48.760;9.178;2023-03-16T07:16:47;26.97;;;14.70;;
6763;SDS011;47432;48.760;9.178;2023-03-16T07:19:16;28.47;;;15.50;;
6763;SDS011;47432;48.760;9.178;2023-03-16T07:21:43;30.50;;;15.90;;
6763;SDS011;47432;48.760;9.178;2023-03-16T07:24:09;27.57;;;14.03;;
6763;SDS011;47432;48.760;9.178;2023-03-16T07:26:36;33.10;;;15.80;;
6763;SDS011;47432;48.760;9.178;2023-03-16T07:29:03;30.33;;;16.43;;
6763;SDS011;47432;48.760;9.178;2023-03-16T07:31:30;29.87;;;16.00;;
6763;SDS011;47432;48.760;9.178;2023-03-16T07:34:00;28.83;;;15.70;;
6763;SDS011;47432;48.760;9.178;2023-03-16T07:36:30;29.97;;;15.37;;
6763;SDS011;47432;48.760;9.178;2023-03-16T07:38:58;27.43;;;16.30;;
6763;SDS011;47432;48.760;9.178;2023-03-16T07:41:26;27.77;;;15.87;;
6763;SDS011;47432;48.760;9.178;2023-03-16T07:43:52;31.20;;;17.63;;
6763;SDS011;47432;48.760;9.178;2023-03-16T07:46:19;29.63;;;16.80;;
6763;SDS011;47432;48.760;9.178;2023-03-16T07:48:45;30.07;;;14.57;;
6763;SDS011;47432;48.760;9.178;2023-03-16T07:51:11;33.60;;;17.80;;
6763;SDS011;47432;48.760;9.178;2023-03-16T07:53:38;28.20;;;15.33;;
6763;SDS011;47432;48.760;9.178;2023-03-16T07:56:05;28.40;;;15.10;;
6763;SDS011;47432;48.760;9.178;2023-03-16T07:58:31;28.20;;;15.30;;
6763;SDS011;47432;48.760;9.178;2023-03-16T08:00:58;27.83;;;15.83;;
6763;SDS011;47432;48.760;9.178;2023-03-16T08:03:25;27.77;;;15.67;;
6763;SDS011;47432;48.760;9.178;2023-03-16T08:05:53;27.03;;;14.27;;
6763;SDS011;47432;48.760;9.178;2023-03-16T08:08:19;29.57;;;16.10;;
6763;SDS011;47432;48.760;9.178;2023-03-16T08:10:48;29.30;;;15.80;;
6763;SDS011;47432;48.760;9.178;2023-03-16T08:13:19;27.23;;;13.97;;
6763;SDS011;47432;48.760;9.178;2023-03-16T08:15:49;28.83;;;15.33;;
6763;SDS011;47432;48.760;9.178;2023-03-16T08:18:25;26.30;;;13.43;;
6763;SDS011;47432;48.760;9.178;2023-03-16T08:20:56;25.07;;;13.30;;
6763;SDS011;47432;48.760;9.178;2023-03-16T08:23:23;24.53;;;12.10;;
6763;SDS011;47432;48.760;9.178;2023-03-16T08:25:52;20.43;;;10.77;;
6763;SDS011;47432;48.760;9.178;2023-03-16T08:28:20;23.93;;;12.00;;
6763;SDS011;47432;48.760;9.178;2023-03-16T08:30:50;21.70;;;10.73;;
6763;SDS011;47432;48.760;9.178;2023-03-16T08:33:18;23.07;;;11.50;;
6763;SDS011;47432;48.760;9.178;2023-03-16T08:35:47;20.60;;;11.20;;
6763;SDS011;47432;48.760;9.178;2023-03-16T08:38:13;17.93;;;8.80;;
6763;SDS011;47432;48.760;9.178;2023-03-16T08:40:40;21.63;;;10.33;;
6763;SDS011;47432;48.760;9.178;2023-03-16T08:43:10;19.17;;;8.70;;
6763;SDS011;47432;48.760;9.178;2023-03-16T08:45:37;16.77;;;7.60;;
6763;SDS011;47432;48.760;9.178;2023-03-16T08:48:03;16.30;;;7.90;;
6763;SDS011;47432;48.760;9.178;2023-03-16T08:50:31;16.43;;;7.73;;
6763;SDS011;47432;48.760;9.178;2023-03-16T08:52:57;18.00;;;8.37;;
6763;SDS011;47432;48.760;9.178;2023-03-16T08:55:24;17.53;;;8.17;;
6763;SDS011;47432;48.760;9.178;2023-03-16T08:57:50;16.80;;;7.70;;
6763;SDS011;47432;48.760;9.178;2023-03-16T09:00:16;14.13;;;6.67;;
6763;SDS011;47432;48.760;9.178;2023-03-16T09:02:44;14.77;;;6.80;;
6763;SDS011;47432;48.760;9.178;2023-03-16T09:05:12;15.07;;;7.30;;
6763;SDS011;47432;48.760;9.178;2023-03-16T09:07:39;14.27;;;6.70;;
6763;SDS011;47432;48.760;9.178;2023-03-16T09:10:06;13.73;;;6.37;;
6763;SDS011;47432;48.760;9.178;2023-03-16T09:12:35;16.13;;;7.70;;
6763;SDS011;47432;48.760;9.178;2023-03-16T09:15:02;14.00;;;7.60;;
6763;SDS011;47432;48.760;9.178;2023-03-16T09:17:29;13.10;;;7.17;;
6763;SDS011;47432;48.760;9.178;2023-03-16T09:19:55;11.40;;;6.00;;
6763;SDS011;47432;48.760;9.178;2023-03-16T09:22:21;11.77;;;6.30;;
6763;SDS011;47432;48.760;9.178;2023-03-16T09:24:48;13.20;;;7.00;;
6763;SDS011;47432;48.760;9.178;2023-03-16T09:27:15;12.00;;;6.30;;
6763;SDS011;47432;48.760;9.178;2023-03-16T09:29:42;17.80;;;6.70;;
6763;SDS011;47432;48.760;9.178;2023-03-16T09:32:09;14.67;;;6.80;;
6763;SDS011;47432;48.760;9.178;2023-03-16T09:34:35;12.10;;;6.50;;
6763;SDS011;47432;48.760;9.178;2023-03-16T09:37:04;12.63;;;6.07;;
6763;SDS011;47432;48.760;9.178;2023-03-16T09:39:30;14.07;;;6.70;;
6763;SDS011;47432;48.760;9.178;2023-03-16T09:42:02;13.40;;;6.33;;
6763;SDS011;47432;48.760;9.178;2023-03-16T09:45:04;12.60;;;6.57;;
6763;SDS011;47432;48.760;9.178;2023-03-16T09:47:48;11.70;;;5.93;;
6763;SDS011;47432;48.760;9.178;2023-03-16T09:50:20;14.83;;;5.83;;
6763;SDS011;47432;48.760;9.178;2023-03-16T09:56:04;14.43;;;6.27;;
6763;SDS011;47432;48.760;9.178;2023-03-16T09:58:38;11.30;;;5.53;;
6763;SDS011;47432;48.760;9.178;2023-03-16T10:01:13;12.70;;;5.50;;
6763;SDS011;47432;48.760;9.178;2023-03-16T10:04:15;10.93;;;5.80;;
6763;SDS011;47432;48.760;9.178;2023-03-16T10:13:04;12.00;;;5.50;;
6763;SDS011;47432;48.760;9.178;2023-03-16T10:15:45;12.07;;;5.33;;
6763;SDS011;47432;48.760;9.178;2023-03-16T10:18:17;12.80;;;5.37;;
6763;SDS011;47432;48.760;9.178;2023-03-16T10:20:52;12.60;;;5.80;;
6763;SDS011;47432;48.760;9.178;2023-03-16T10:23:21;11.07;;;5.20;;
6763;SDS011;47432;48.760;9.178;2023-03-16T10:26:01;13.17;;;6.73;;
6763;SDS011;47432;48.760;9.178;2023-03-16T10:28:43;12.23;;;5.80;;
6763;SDS011;47432;48.760;9.178;2023-03-16T10:31:37;11.20;;;5.37;;
6763;SDS011;47432;48.760;9.178;2023-03-16T10:34:08;13.80;;;5.97;;
6763;SDS011;47432;48.760;9.178;2023-03-16T10:36:40;12.03;;;5.73;;
6763;SDS011;47432;48.760;9.178;2023-03-16T10:39:12;12.90;;;5.70;;
6763;SDS011;47432;48.760;9.178;2023-03-16T10:41:44;12.27;;;5.47;;
6763;SDS011;47432;48.760;9.178;2023-03-16T10:44:25;10.83;;;5.00;;
6763;SDS011;47432;48.760;9.178;2023-03-16T10:47:03;11.07;;;5.00;;
6763;SDS011;47432;48.760;9.178;2023-03-16T10:49:35;13.87;;;5.27;;
6763;SDS011;47432;48.760;9.178;2023-03-16T10:52:33;10.87;;;5.03;;
6763;SDS011;47432;48.760;9.178;2023-03-16T10:55:23;10.70;;;4.30;;
6763;SDS011;47432;48.760;9.178;2023-03-16T10:57:54;10.03;;;4.20;;
6763;SDS011;47432;48.760;9.178;2023-03-16T11:00:42;9.97;;;4.77;;
6763;SDS011;47432;48.760;9.178;2023-03-16T11:03:20;11.10;;;4.50;;
6763;SDS011;47432;48.760;9.178;2023-03-16T11:05:57;9.67;;;4.30;;
6763;SDS011;47432;48.760;9.178;2023-03-16T11:08:26;9.53;;;4.30;;
6763;SDS011;47432;48.760;9.178;2023-03-16T11:10:57;10.50;;;4.50;;
6763;SDS011;47432;48.760;9.178;2023-03-16T11:13:31;11.40;;;4.57;;
6763;SDS011;47432;48.760;9.178;2023-03-16T11:19:01;9.43;;;3.70;;
6763;SDS011;47432;48.760;9.178;2023-03-16T11:21:53;8.80;;;3.43;;
6763;SDS011;47432;48.760;9.178;2023-03-16T11:24:47;10.83;;;3.80;;
6763;SDS011;47432;48.760;9.178;2023-03-16T11:32:59;10.47;;;3.80;;
6763;SDS011;47432;48.760;9.178;2023-03-16T11:35:27;10.23;;;3.80;;
6763;SDS011;47432;48.760;9.178;2023-03-16T11:38:14;9.40;;;3.50;;
6763;SDS011;47432;48.760;9.178;2023-03-16T11:40:57;10.20;;;3.60;;
6763;SDS011;47432;48.760;9.178;2023-03-16T11:43:45;8.17;;;2.70;;
6763;SDS011;47432;48.760;9.178;2023-03-16T11:52:03;9.83;;;4.03;;
6763;SDS011;47432;48.760;9.178;2023-03-16T12:00:46;9.67;;;3.60;;
6763;SDS011;47432;48.760;9.178;2023-03-16T12:18:05;9.30;;;3.00;;
6763;SDS011;47432;48.760;9.178;2023-03-16T12:23:51;9.50;;;3.60;;
6763;SDS011;47432;48.760;9.178;2023-03-16T12:26:24;9.60;;;3.80;;
6763;SDS011;47432;48.760;9.178;2023-03-16T12:28:54;8.73;;;2.90;;
6763;SDS011;47432;48.760;9.178;2023-03-16T12:31:46;9.07;;;3.37;;
6763;SDS011;47432;48.760;9.178;2023-03-16T12:34:40;9.63;;;4.00;;
6763;SDS011;47432;48.760;9.178;2023-03-16T12:37:22;9.10;;;3.43;;
6763;SDS011;47432;48.760;9.178;2023-03-16T12:43:17;8.50;;;2.77;;
6763;SDS011;47432;48.760;9.178;2023-03-16T12:46:18;8.70;;;2.93;;
6763;SDS011;47432;48.760;9.178;2023-03-16T12:49:01;9.97;;;3.70;;
6763;SDS011;47432;48.760;9.178;2023-03-16T12:51:31;10.40;;;3.00;;
6763;SDS011;47432;48.760;9.178;2023-03-16T12:54:05;9.80;;;3.70;;
6763;SDS011;47432;48.760;9.178;2023-03-16T12:56:46;8.60;;;3.13;;
6763;SDS011;47432;48.760;9.178;2023-03-16T12:59:17;9.40;;;3.30;;
6763;SDS011;47432;48.760;9.178;2023-03-16T13:01:48;9.10;;;3.47;;
6763;SDS011;47432;48.760;9.178;2023-03-16T13:04:19;9.20;;;2.70;;
6763;SDS011;47432;48.760;9.178;2023-03-16T13:06:49;9.60;;;3.00;;
6763;SDS011;47432;48.760;9.178;2023-03-16T13:09:25;9.07;;;3.17;;
6763;SDS011;47432;48.760;9.178;2023-03-16T13:11:53;8.90;;;2.83;;
6763;SDS011;47432;48.760;9.178;2023-03-16T13:19:39;9.90;;;3.57;;
6763;SDS011;47432;48.760;9.178;2023-03-16T13:24:50;8.00;;;2.67;;
6763;SDS011;47432;48.760;9.178;2023-03-16T13:27:19;8.40;;;3.30;;
6763;SDS011;47432;48.760;9.178;2023-03-16T13:29:54;10.00;;;3.43;;
6763;SDS011;47432;48.760;9.178;2023-03-16T13:32:29;10.97;;;3.50;;
6763;SDS011;47432;48.760;9.178;2023-03-16T13:34:58;8.80;;;3.50;;
6763;SDS011;47432;48.760;9.178;2023-03-16T13:37:27;11.50;;;3.53;;
6763;SDS011;47432;48.760;9.178;2023-03-16T13:39:55;8.93;;;2.90;;
6763;SDS011;47432;48.760;9.178;2023-03-16T13:42:24;9.57;;;3.43;;
6763;SDS011;47432;48.760;9.178;2023-03-16T13:44:53;11.87;;;4.00;;
6763;SDS011;47432;48.760;9.178;2023-03-16T13:47:22;9.37;;;2.87;;
6763;SDS011;47432;48.760;9.178;2023-03-16T13:49:58;9.23;;;2.97;;
6763;SDS011;47432;48.760;9.178;2023-03-16T13:52:34;8.80;;;2.50;;
6763;SDS011;47432;48.760;9.178;2023-03-16T13:55:01;9.57;;;2.43;;
6763;SDS011;47432;48.760;9.178;2023-03-16T13:57:35;8.13;;;2.60;;
6763;SDS011;47432;48.760;9.178;2023-03-16T14:00:45;9.00;;;2.73;;
6763;SDS011;47432;48.760;9.178;2023-03-16T14:02:57;8.00;;;2.57;;
6763;SDS011;47432;48.760;9.178;2023-03-16T14:05:29;8.10;;;2.50;;
6763;SDS011;47432;48.760;9.178;2023-03-16T14:07:57;9.47;;;2.50;;
6763;SDS011;47432;48.760;9.178;2023-03-16T14:10:30;8.30;;;2.87;;
6763;SDS011;47432;48.760;9.178;2023-03-16T14:13:09;9.23;;;3.10;;
6763;SDS011;47432;48.760;9.178;2023-03-16T14:16:01;8.10;;;2.60;;
6763;SDS011;47432;48.760;9.178;2023-03-16T14:18:44;9.70;;;2.47;;
6763;SDS011;47432;48.760;9.178;2023-03-16T14:21:20;8.03;;;2.10;;
6763;SDS011;47432;48.760;9.178;2023-03-16T14:23:50;9.80;;;2.70;;
6763;SDS011;47432;48.760;9.178;2023-03-16T14:26:24;9.30;;;2.40;;
6763;SDS011;47432;48.760;9.178;2023-03-16T14:29:01;8.80;;;2.43;;
6763;SDS011;47432;48.760;9.178;2023-03-16T14:31:35;9.70;;;3.00;;
6763;SDS011;47432;48.760;9.178;2023-03-16T14:34:49;10.27;;;3.03;;
6763;SDS011;47432;48.760;9.178;2023-03-16T14:37:16;9.73;;;3.00;;
6763;SDS011;47432;48.760;9.178;2023-03-16T14:39:43;9.77;;;2.80;;
6763;SDS011;47432;48.760;9.178;2023-03-16T14:42:17;12.20;;;3.10;;
6763;SDS011;47432;48.760;9.178;2023-03-16T14:44:57;9.70;;;2.47;;
6763;SDS011;47432;48.760;9.178;2023-03-16T14:47:28;9.30;;;2.77;;
6763;SDS011;47432;48.760;9.178;2023-03-16T14:49:56;8.90;;;2.33;;
6763;SDS011;47432;48.760;9.178;2023-03-16T14:52:30;9.30;;;2.93;;
6763;SDS011;47432;48.760;9.178;2023-03-16T14:54:56;11.67;;;3.07;;
6763;SDS011;47432;48.760;9.178;2023-03-16T14:57:23;15.40;;;3.10;;
6763;SDS011;47432;48.760;9.178;2023-03-16T14:59:52;9.10;;;2.63;;
6763;SDS011;47432;48.760;9.178;2023-03-16T15:02:20;10.40;;;3.17;;
6763;SDS011;47432;48.760;9.178;2023-03-16T15:04:51;10.17;;;2.63;;
6763;SDS011;47432;48.760;9.178;2023-03-16T15:07:21;12.00;;;3.17;;
6763;SDS011;47432;48.760;9.178;2023-03-16T15:09:49;9.50;;;2.07;;
6763;SDS011;47432;48.760;9.178;2023-03-16T15:12:16;9.20;;;2.30;;
6763;SDS011;47432;48.760;9.178;2023-03-16T15:14:43;11.07;;;2.80;;
6763;SDS011;47432;48.760;9.178;2023-03-16T15:17:43;9.40;;;2.43;;
6763;SDS011;47432;48.760;9.178;2023-03-16T15:20:14;9.37;;;2.10;;
6763;SDS011;47432;48.760;9.178;2023-03-16T15:22:42;9.30;;;2.10;;
6763;SDS011;47432;48.760;9.178;2023-03-16T15:25:17;9.00;;;2.00;;
6763;SDS011;47432;48.760;9.178;2023-03-16T15:27:46;9.03;;;2.37;;
6763;SDS011;47432;48.760;9.178;2023-03-16T15:30:17;11.67;;;2.33;;
6763;SDS011;47432;48.760;9.178;2023-03-16T15:32:47;9.33;;;2.37;;
6763;SDS011;47432;48.760;9.178;2023-03-16T15:35:13;9.07;;;1.73;;
6763;SDS011;47432;48.760;9.178;2023-03-16T15:37:39;9.10;;;2.10;;
6763;SDS011;47432;48.760;9.178;2023-03-16T15:40:13;8.60;;;2.07;;
6763;SDS011;47432;48.760;9.178;2023-03-16T15:42:47;9.23;;;2.20;;
6763;SDS011;47432;48.760;9.178;2023-03-16T15:45:14;12.43;;;2.87;;
6763;SDS011;47432;48.760;9.178;2023-03-16T15:47:42;10.60;;;2.17;;
6763;SDS011;47432;48.760;9.178;2023-03-16T15:50:11;9.10;;;2.23;;
6763;SDS011;47432;48.760;9.178;2023-03-16T15:52:39;10.50;;;1.90;;
6763;SDS011;47432;48.760;9.178;2023-03-16T15:55:13;8.80;;;1.70;;
6763;SDS011;47432;48.760;9.178;2023-03-16T15:57:41;9.40;;;2.20;;
6763;SDS011;47432;48.760;9.178;2023-03-16T16:00:11;9.47;;;2.53;;
6763;SDS011;47432;48.760;9.178;2023-03-16T16:02:49;10.37;;;2.40;;
6763;SDS011;47432;48.760;9.178;2023-03-16T16:05:18;9.27;;;2.33;;
6763;SDS011;47432;48.760;9.178;2023-03-16T16:07:44;8.00;;;1.63;;